Time;durP1;ratioP1;P1;durP2;ratioP2;P2;SDS_P1;SDS_P2;PMS_P1;PMS_P2;Temp;Humidity;BMP_temperature;BMP_pressure;BME280_temperature;BME280_humidity;BME280_pressure;Samples;Min_cycle;Max_cycle;Signal;HPM_P1;HPM_P2
2023/11/10 00:02:19;;;;;;;;;;;15.40;89.40;;;;;;4028653;29;20034;-45
2023/11/10 00:04:59;;;;;;;;;;;15.50;88.30;;;;;;4041491;29;19978;-44
2023/11/10 00:07:42;;;;;;;;;;;15.50;87.70;;;;;;4043892;29;19938;-44
2023/11/10 00:10:23;;;;;;;;;;;15.50;88.90;;;;;;4044023;29;19934;-43
2023/11/10 00:13:03;;;;;;;;;;;15.50;87.80;;;;;;4044177;29;19938;-44
2023/11/10 00:15:44;;;;;;;;;;;15.50;87.50;;;;;;4017334;29;19934;-43
2023/11/10 00:18:25;;;;;;;;;;;15.50;87.80;;;;;;4028443;29;19939;-43
2023/11/10 00:21:06;;;;;;;;;;;15.50;88.20;;;;;;4028491;29;19957;-43
2023/11/10 00:23:48;;;;;;;;;;;15.50;88.20;;;;;;4027878;29;19939;-43
2023/11/10 00:26:33;;;;;;;;;;;15.50;88.10;;;;;;4015729;29;19970;-46
2023/11/10 00:29:13;;;;;;;;;;;15.60;87.80;;;;;;4028364;29;19938;-43
2023/11/10 00:31:54;;;;;;;;;;;15.60;87.70;;;;;;4028465;29;19935;-44
2023/11/10 00:34:35;;;;;;;;;;;15.60;87.90;;;;;;4016292;29;19938;-47
2023/11/10 00:37:15;;;;;;;;;;;15.70;86.80;;;;;;4043024;29;19962;-43
2023/11/10 00:39:59;;;;;;;;;;;15.70;87.30;;;;;;4043663;29;19939;-43
2023/11/10 00:42:40;;;;;;;;;;;15.70;86.30;;;;;;4043017;29;19935;-43
2023/11/10 00:45:21;;;;;;;;;;;15.80;85.80;;;;;;4027866;29;20023;-47
2023/11/10 00:48:02;;;;;;;;;;;15.80;86.50;;;;;;4027899;29;20044;-44
2023/11/10 00:50:42;;;;;;;;;;;15.90;86.70;;;;;;4027439;29;19975;-44
2023/11/10 00:53:26;;;;;;;;;;;15.80;86.30;;;;;;4027732;29;19951;-45
2023/11/10 00:56:07;;;;;;;;;;;15.80;86.20;;;;;;4016232;29;19938;-47
2023/11/10 00:58:48;;;;;;;;;;;15.80;86.80;;;;;;4027500;29;20018;-45
2023/11/10 01:01:29;;;;;;;;;;;15.90;86.50;;;;;;4027653;29;19938;-46
2023/11/10 01:04:09;;;;;;;;;;;15.90;86.50;;;;;;4033282;29;19935;-45
2023/11/10 01:06:51;;;;;;;;;;;15.90;86.50;;;;;;4031396;29;20304;-45
2023/11/10 01:09:32;;;;;;;;;;;15.90;86.40;;;;;;4031030;29;19938;-43
2023/11/10 01:12:14;;;;;;;;;;;16.00;85.20;;;;;;4043176;29;20391;-44
2023/11/10 01:14:55;;;;;;;;;;;15.90;85.80;;;;;;4042930;29;20510;-44
2023/11/10 01:17:36;;;;;;;;;;;15.90;85.90;;;;;;4031457;29;19934;-44
2023/11/10 01:20:17;;;;;;;;;;;16.00;85.40;;;;;;4036930;29;20038;-44
2023/11/10 01:23:00;;;;;;;;;;;15.90;85.10;;;;;;4027503;29;19954;-45
2023/11/10 01:25:42;;;;;;;;;;;15.90;85.60;;;;;;4027637;29;19935;-45
2023/11/10 01:28:25;;;;;;;;;;;15.90;85.80;;;;;;4016184;29;19935;-45
2023/11/10 01:31:06;;;;;;;;;;;15.90;85.10;;;;;;4015718;29;19934;-44
2023/11/10 01:33:47;;;;;;;;;;;15.90;85.90;;;;;;4015794;29;19939;-44
2023/11/10 01:36:29;;;;;;;;;;;15.90;85.30;;;;;;4005592;29;19963;-45
2023/11/10 01:39:10;;;;;;;;;;;15.80;86.80;;;;;;4027284;29;20004;-47
2023/11/10 01:41:52;;;;;;;;;;;15.90;84.90;;;;;;3994197;29;19934;-43
2023/11/10 01:44:35;;;;;;;;;;;15.90;85.50;;;;;;4016247;29;19935;-45
2023/11/10 01:47:16;;;;;;;;;;;15.90;84.10;;;;;;4016090;29;20406;-48
2023/11/10 01:49:57;;;;;;;;;;;16.00;84.50;;;;;;4014972;29;19939;-44
2023/11/10 01:52:39;;;;;;;;;;;16.00;84.10;;;;;;4037536;29;19990;-45
2023/11/10 01:55:20;;;;;;;;;;;16.00;83.90;;;;;;4030787;29;19938;-46
2023/11/10 01:58:01;;;;;;;;;;;16.00;84.40;;;;;;4030991;29;19934;-55
2023/11/10 02:00:43;;;;;;;;;;;16.00;84.00;;;;;;4021592;29;20028;-45
2023/11/10 02:03:24;;;;;;;;;;;16.00;84.70;;;;;;4026180;29;20028;-48
2023/11/10 02:06:08;;;;;;;;;;;16.00;83.70;;;;;;4027020;29;20375;-48
2023/11/10 02:08:49;;;;;;;;;;;16.00;83.40;;;;;;4033480;29;19935;-47
2023/11/10 02:11:31;;;;;;;;;;;16.00;83.70;;;;;;4039787;29;19939;-43
2023/11/10 02:14:12;;;;;;;;;;;16.00;81.80;;;;;;4029593;29;19935;-44
2023/11/10 02:16:54;;;;;;;;;;;16.00;83.20;;;;;;4023063;29;19998;-46
2023/11/10 02:19:35;;;;;;;;;;;16.00;83.00;;;;;;4045249;29;19934;-46
2023/11/10 02:22:16;;;;;;;;;;;16.00;83.80;;;;;;4033364;29;20080;-44
2023/11/10 02:24:58;;;;;;;;;;;16.00;83.50;;;;;;4045203;29;19956;-46
2023/11/10 02:27:40;;;;;;;;;;;16.00;82.60;;;;;;4033257;29;20287;-44
2023/11/10 02:30:21;;;;;;;;;;;16.00;82.10;;;;;;4033433;29;20435;-45
2023/11/10 02:33:02;;;;;;;;;;;16.00;83.20;;;;;;4029561;29;20375;-44
2023/11/10 02:35:43;;;;;;;;;;;16.00;82.60;;;;;;4029548;29;20018;-43
2023/11/10 02:38:23;;;;;;;;;;;16.00;82.90;;;;;;4029931;29;19939;-46
2023/11/10 02:41:05;;;;;;;;;;;16.00;83.50;;;;;;4029181;29;19995;-44
2023/11/10 02:43:47;;;;;;;;;;;16.00;83.10;;;;;;4029623;29;19934;-46
2023/11/10 02:46:28;;;;;;;;;;;16.00;83.80;;;;;;4028955;29;20079;-44
2023/11/10 02:49:08;;;;;;;;;;;16.10;82.80;;;;;;4029224;29;20408;-45
2023/11/10 02:51:50;;;;;;;;;;;16.10;83.30;;;;;;4022040;29;19939;-48
2023/11/10 02:54:31;;;;;;;;;;;16.20;81.90;;;;;;4029752;29;20303;-44
2023/11/10 02:57:12;;;;;;;;;;;16.20;83.10;;;;;;4029269;29;20019;-46
2023/11/10 02:59:54;;;;;;;;;;;16.20;82.50;;;;;;4018358;29;20346;-48
2023/11/10 03:02:36;;;;;;;;;;;16.20;82.30;;;;;;4017607;29;19935;-46
2023/11/10 03:05:17;;;;;;;;;;;16.20;83.10;;;;;;4028618;29;19935;-44
2023/11/10 03:07:58;;;;;;;;;;;16.30;83.20;;;;;;4017277;29;19935;-44
2023/11/10 03:10:39;;;;;;;;;;;16.30;83.10;;;;;;4017803;29;19943;-44
2023/11/10 03:13:20;;;;;;;;;;;16.30;82.60;;;;;;4029238;29;20087;-44
2023/11/10 03:16:03;;;;;;;;;;;16.30;83.70;;;;;;4017740;29;19960;-43
2023/11/10 03:18:43;;;;;;;;;;;16.30;82.70;;;;;;4038378;29;19938;-44
2023/11/10 03:21:26;;;;;;;;;;;16.20;82.70;;;;;;4029844;29;19946;-47
2023/11/10 03:24:07;;;;;;;;;;;16.30;82.80;;;;;;4028847;29;20064;-47
2023/11/10 03:26:48;;;;;;;;;;;16.20;82.60;;;;;;4028836;29;19935;-45
2023/11/10 03:29:28;;;;;;;;;;;16.20;82.70;;;;;;4028825;29;19939;-44
2023/11/10 03:32:10;;;;;;;;;;;16.20;81.70;;;;;;4015833;29;20295;-46
2023/11/10 03:34:51;;;;;;;;;;;16.20;82.70;;;;;;4027522;29;19938;-44
2023/11/10 03:37:32;;;;;;;;;;;16.30;81.50;;;;;;4017974;29;19947;-49
2023/11/10 03:40:14;;;;;;;;;;;16.30;81.80;;;;;;4036837;29;20298;-43
2023/11/10 03:42:55;;;;;;;;;;;16.20;82.10;;;;;;4015309;29;19935;-42
2023/11/10 03:45:36;;;;;;;;;;;16.30;82.80;;;;;;4026852;29;19939;-44
2023/11/10 03:48:18;;;;;;;;;;;16.30;82.30;;;;;;4027039;29;19935;-45
2023/11/10 03:50:58;;;;;;;;;;;16.30;82.10;;;;;;4027691;29;20521;-45
2023/11/10 03:53:42;;;;;;;;;;;16.30;81.70;;;;;;4030687;29;19938;-45
2023/11/10 03:56:23;;;;;;;;;;;16.30;82.50;;;;;;4042908;29;19933;-45
2023/11/10 03:59:05;;;;;;;;;;;16.30;82.00;;;;;;4042497;29;19939;-44
2023/11/10 04:01:45;;;;;;;;;;;16.30;81.60;;;;;;4042426;29;19935;-43
2023/11/10 04:04:27;;;;;;;;;;;16.30;81.30;;;;;;4038156;29;19943;-44
2023/11/10 04:07:08;;;;;;;;;;;16.30;81.80;;;;;;4027651;29;19935;-44
2023/11/10 04:09:49;;;;;;;;;;;16.30;81.40;;;;;;4027542;29;20006;-46
2023/11/10 04:12:30;;;;;;;;;;;16.20;82.00;;;;;;4033302;29;19935;-47
2023/11/10 04:15:11;;;;;;;;;;;16.20;82.30;;;;;;4043040;29;19939;-45
2023/11/10 04:17:52;;;;;;;;;;;16.20;81.70;;;;;;4041861;29;20304;-46
2023/11/10 04:20:34;;;;;;;;;;;16.20;81.60;;;;;;4031048;29;19938;-45
2023/11/10 04:23:16;;;;;;;;;;;16.20;81.80;;;;;;4027732;29;20034;-44
2023/11/10 04:25:56;;;;;;;;;;;16.20;81.60;;;;;;4026641;29;19935;-47
2023/11/10 04:28:38;;;;;;;;;;;16.20;82.30;;;;;;4041977;29;19978;-46
2023/11/10 04:31:18;;;;;;;;;;;16.30;82.20;;;;;;3982092;29;1788383;-44
2023/11/10 04:33:59;;;;;;;;;;;16.30;82.10;;;;;;4043016;29;19935;-46
2023/11/10 04:36:45;;;;;;;;;;;16.30;81.90;;;;;;4042951;29;19942;-45
2023/11/10 04:39:26;;;;;;;;;;;16.30;81.60;;;;;;4031728;29;19935;-44
2023/11/10 04:42:07;;;;;;;;;;;16.30;81.20;;;;;;4028686;29;19942;-44
2023/11/10 04:44:48;;;;;;;;;;;16.30;81.80;;;;;;4033176;29;20386;-45
2023/11/10 04:47:29;;;;;;;;;;;16.30;81.10;;;;;;4038770;29;19935;-46
2023/11/10 04:50:12;;;;;;;;;;;16.30;80.20;;;;;;4042928;29;19982;-45
2023/11/10 04:52:54;;;;;;;;;;;16.30;80.70;;;;;;4033223;29;19951;-44
2023/11/10 04:55:35;;;;;;;;;;;16.30;81.00;;;;;;4027840;29;19935;-46
2023/11/10 04:58:16;;;;;;;;;;;16.30;80.00;;;;;;4027853;29;19967;-44
2023/11/10 05:01:07;;;;;;;;;;;16.30;82.00;;;;;;4036024;29;19935;-42
2023/11/10 05:03:48;;;;;;;;;;;16.30;81.60;;;;;;4028422;29;19966;-46
2023/11/10 05:06:30;;;;;;;;;;;16.30;81.50;;;;;;4027434;29;20395;-43
2023/11/10 05:09:12;;;;;;;;;;;16.40;81.40;;;;;;4027202;29;19938;-44
2023/11/10 05:11:53;;;;;;;;;;;16.30;82.00;;;;;;4030407;29;20296;-55
2023/11/10 05:14:39;;;;;;;;;;;16.30;82.60;;;;;;4019252;29;20391;-53
2023/11/10 05:17:19;;;;;;;;;;;16.40;82.80;;;;;;4027500;29;20063;-51
2023/11/10 05:20:01;;;;;;;;;;;16.30;82.60;;;;;;4027999;29;20067;-54
2023/11/10 05:22:43;;;;;;;;;;;16.30;82.60;;;;;;4027746;29;19943;-43
2023/11/10 05:25:25;;;;;;;;;;;16.30;82.80;;;;;;4027068;29;20410;-44
2023/11/10 05:28:06;;;;;;;;;;;16.30;82.40;;;;;;4027699;29;19934;-46
2023/11/10 05:30:47;;;;;;;;;;;16.40;82.20;;;;;;4016553;29;19939;-46
2023/11/10 05:33:29;;;;;;;;;;;16.40;80.60;;;;;;4042880;29;19979;-45
2023/11/10 05:36:10;;;;;;;;;;;16.40;80.30;;;;;;4043316;29;19934;-43
2023/11/10 05:38:50;;;;;;;;;;;16.40;80.40;;;;;;4037657;29;19935;-44
2023/11/10 05:41:33;;;;;;;;;;;16.30;81.20;;;;;;4027756;29;20335;-44
2023/11/10 05:44:14;;;;;;;;;;;16.30;82.00;;;;;;4027349;29;20075;-43
2023/11/10 05:46:55;;;;;;;;;;;16.30;81.70;;;;;;4039471;29;20275;-44
2023/11/10 05:49:36;;;;;;;;;;;16.30;80.60;;;;;;4046121;29;19939;-44
2023/11/10 05:52:16;;;;;;;;;;;16.30;81.30;;;;;;4045020;29;20447;-44
2023/11/10 05:54:58;;;;;;;;;;;16.40;81.80;;;;;;4046093;29;20075;-44
2023/11/10 05:57:41;;;;;;;;;;;16.40;81.60;;;;;;4030402;29;19943;-45
2023/11/10 06:00:23;;;;;;;;;;;16.40;81.80;;;;;;4030185;29;20103;-42
2023/11/10 06:03:05;;;;;;;;;;;16.40;79.90;;;;;;4030032;29;20403;-47
2023/11/10 06:05:46;;;;;;;;;;;16.40;81.70;;;;;;4018881;29;19938;-43
2023/11/10 06:08:27;;;;;;;;;;;16.40;81.10;;;;;;4029864;29;19959;-44
2023/11/10 06:11:08;;;;;;;;;;;16.40;79.50;;;;;;4030346;29;19935;-44
2023/11/10 06:13:51;;;;;;;;;;;16.40;81.10;;;;;;4030330;29;20435;-45
2023/11/10 06:16:32;;;;;;;;;;;16.40;80.40;;;;;;4030051;29;20024;-43
2023/11/10 06:19:12;;;;;;;;;;;16.30;80.50;;;;;;4029323;29;20045;-43
2023/11/10 06:21:53;;;;;;;;;;;16.30;80.30;;;;;;4029622;29;19935;-47
2023/11/10 06:24:34;;;;;;;;;;;16.40;80.50;;;;;;4031353;29;20008;-45
2023/11/10 06:27:15;;;;;;;;;;;16.30;80.00;;;;;;4026405;29;20084;-46
2023/11/10 06:29:57;;;;;;;;;;;16.40;80.80;;;;;;4029822;29;19935;-44
2023/11/10 06:32:38;;;;;;;;;;;16.40;80.70;;;;;;4029645;29;20375;-44
2023/11/10 06:35:19;;;;;;;;;;;16.40;80.80;;;;;;4029201;29;19934;-45
2023/11/10 06:37:59;;;;;;;;;;;16.40;81.20;;;;;;4040018;29;20490;-48
2023/11/10 06:40:41;;;;;;;;;;;16.40;81.10;;;;;;4044895;29;20091;-46
2023/11/10 06:43:22;;;;;;;;;;;16.40;80.20;;;;;;4024521;29;19987;-47
2023/11/10 06:46:05;;;;;;;;;;;16.30;80.40;;;;;;4029545;29;20011;-52
2023/11/10 06:48:45;;;;;;;;;;;16.30;81.00;;;;;;4038050;29;19938;-48
2023/11/10 06:51:26;;;;;;;;;;;16.20;80.90;;;;;;4044687;29;19934;-49
2023/11/10 06:54:07;;;;;;;;;;;16.10;81.30;;;;;;4044605;29;19939;-45
2023/11/10 06:56:48;;;;;;;;;;;16.00;81.10;;;;;;4032442;29;20050;-45
2023/11/10 06:59:29;;;;;;;;;;;16.00;82.50;;;;;;4044640;29;19934;-48
2023/11/10 07:02:12;;;;;;;;;;;16.00;81.80;;;;;;4026089;29;19935;-46
2023/11/10 07:04:53;;;;;;;;;;;16.00;81.80;;;;;;4043446;29;19939;-46
2023/11/10 07:07:34;;;;;;;;;;;16.00;82.00;;;;;;4029367;29;19935;-45
2023/11/10 07:10:15;;;;;;;;;;;15.90;81.80;;;;;;4028988;29;20084;-46
2023/11/10 07:12:55;;;;;;;;;;;15.90;81.00;;;;;;4029538;29;19939;-46
2023/11/10 07:15:36;;;;;;;;;;;16.00;83.00;;;;;;4029244;29;20052;-45
2023/11/10 07:18:19;;;;;;;;;;;16.00;82.20;;;;;;4029382;29;19939;-45
2023/11/10 07:20:59;;;;;;;;;;;16.00;81.40;;;;;;4028452;29;19977;-46
2023/11/10 07:23:40;;;;;;;;;;;16.00;80.20;;;;;;4029137;29;19982;-44
2023/11/10 07:26:21;;;;;;;;;;;16.00;79.60;;;;;;4028971;29;19934;-47
2023/11/10 07:29:04;;;;;;;;;;;16.10;79.00;;;;;;4028998;29;20280;-45
2023/11/10 07:31:45;;;;;;;;;;;16.10;77.80;;;;;;4028753;29;19939;-44
2023/11/10 07:34:27;;;;;;;;;;;16.10;77.40;;;;;;4027974;29;19935;-46
2023/11/10 07:37:07;;;;;;;;;;;16.20;76.90;;;;;;4027768;29;20062;-45
2023/11/10 07:39:48;;;;;;;;;;;16.20;76.70;;;;;;4044493;29;20264;-47
2023/11/10 07:42:29;;;;;;;;;;;16.20;76.30;;;;;;4044368;29;19937;-48
2023/11/10 07:45:14;;;;;;;;;;;16.20;76.10;;;;;;4039351;29;19934;-48
2023/11/10 07:47:55;;;;;;;;;;;16.20;75.80;;;;;;4029202;29;19935;-43
2023/11/10 07:50:39;;;;;;;;;;;16.20;75.50;;;;;;4028764;29;19939;-44
2023/11/10 07:53:20;;;;;;;;;;;16.20;75.50;;;;;;4036593;29;20034;-46
2023/11/10 07:56:01;;;;;;;;;;;16.30;75.10;;;;;;4029339;29;19938;-45
2023/11/10 07:58:42;;;;;;;;;;;16.30;74.60;;;;;;4028512;29;19955;-44
2023/11/10 08:01:23;;;;;;;;;;;16.30;74.20;;;;;;4028019;29;19938;-44
2023/11/10 08:04:05;;;;;;;;;;;16.30;74.00;;;;;;4028946;29;19939;-45
2023/11/10 08:06:47;;;;;;;;;;;16.30;73.80;;;;;;4016860;29;19939;-43
2023/11/10 08:09:28;;;;;;;;;;;16.40;73.30;;;;;;4027342;29;20029;-45
2023/11/10 08:12:09;;;;;;;;;;;16.40;73.70;;;;;;4017015;29;20395;-46
2023/11/10 08:14:50;;;;;;;;;;;16.30;72.40;;;;;;4016483;29;19935;-45
2023/11/10 08:17:30;;;;;;;;;;;16.30;72.00;;;;;;4027897;29;19954;-46
2023/11/10 08:20:11;;;;;;;;;;;16.30;71.90;;;;;;4042730;29;20002;-44
2023/11/10 08:22:53;;;;;;;;;;;16.20;71.70;;;;;;4035169;29;19934;-43
2023/11/10 08:25:35;;;;;;;;;;;16.20;71.80;;;;;;4041100;29;20044;-46
2023/11/10 08:28:16;;;;;;;;;;;16.20;71.90;;;;;;4030843;29;19955;-46
2023/11/10 08:30:57;;;;;;;;;;;16.10;72.00;;;;;;4030940;29;20370;-43
2023/11/10 08:33:38;;;;;;;;;;;16.10;72.00;;;;;;4030798;29;20324;-43
2023/11/10 08:36:21;;;;;;;;;;;16.10;73.00;;;;;;4027522;29;20018;-43
2023/11/10 08:39:04;;;;;;;;;;;16.10;72.00;;;;;;4028023;29;19938;-43
2023/11/10 08:41:47;;;;;;;;;;;16.00;71.80;;;;;;4031107;29;19934;-44
2023/11/10 08:44:28;;;;;;;;;;;16.00;72.00;;;;;;4042478;29;20370;-43
2023/11/10 08:47:09;;;;;;;;;;;16.00;72.60;;;;;;4042825;29;19938;-45
2023/11/10 08:49:52;;;;;;;;;;;16.00;72.50;;;;;;4041097;29;19934;-45
2023/11/10 08:52:33;;;;;;;;;;;16.00;73.70;;;;;;4040031;29;19934;-45
2023/11/10 08:55:20;;;;;;;;;;;16.00;72.90;;;;;;4042805;29;19934;-48
2023/11/10 08:58:02;;;;;;;;;;;16.00;72.80;;;;;;4043054;29;19938;-49
2023/11/10 09:00:43;;;;;;;;;;;15.90;72.30;;;;;;4042878;29;19938;-48
2023/11/10 09:03:24;;;;;;;;;;;15.90;73.20;;;;;;4027343;29;19987;-47
2023/11/10 09:06:06;;;;;;;;;;;15.90;72.30;;;;;;4026803;29;20323;-47
2023/11/10 09:08:46;;;;;;;;;;;15.90;72.40;;;;;;4027661;29;19935;-47
2023/11/10 09:11:28;;;;;;;;;;;15.90;72.40;;;;;;4027195;29;20009;-47
2023/11/10 09:14:09;;;;;;;;;;;15.80;72.20;;;;;;4026672;29;19983;-49
2023/11/10 09:16:50;;;;;;;;;;;15.90;72.20;;;;;;4027808;29;19938;-48
2023/11/10 09:19:31;;;;;;;;;;;15.80;72.10;;;;;;4028381;29;19979;-51
2023/11/10 09:22:12;;;;;;;;;;;15.80;72.10;;;;;;4027842;29;19935;-46
2023/11/10 09:24:53;;;;;;;;;;;15.80;72.10;;;;;;4027106;29;19939;-46
2023/11/10 09:27:35;;;;;;;;;;;15.80;72.20;;;;;;4035031;29;19939;-50
2023/11/10 09:30:16;;;;;;;;;;;15.80;72.30;;;;;;4027363;29;19939;-51
2023/11/10 09:32:57;;;;;;;;;;;15.80;72.70;;;;;;4027175;29;19955;-47
2023/11/10 09:35:38;;;;;;;;;;;15.80;72.80;;;;;;4024132;29;20023;-50
2023/11/10 09:38:19;;;;;;;;;;;15.80;74.10;;;;;;4026653;29;19974;-48
2023/11/10 09:41:01;;;;;;;;;;;15.90;73.70;;;;;;4027392;29;20015;-51
2023/11/10 09:43:45;;;;;;;;;;;15.90;73.20;;;;;;4042283;29;19935;-51
2023/11/10 09:46:27;;;;;;;;;;;16.00;74.00;;;;;;4032659;29;19935;-48
2023/11/10 09:49:08;;;;;;;;;;;16.00;74.30;;;;;;4014726;29;19939;-51
2023/11/10 09:51:49;;;;;;;;;;;16.00;74.40;;;;;;4026632;29;19943;-49
2023/11/10 09:54:31;;;;;;;;;;;16.00;74.40;;;;;;4027511;29;20288;-53
2023/11/10 09:57:12;;;;;;;;;;;16.00;74.60;;;;;;4026975;29;20503;-53
2023/11/10 09:59:56;;;;;;;;;;;16.00;75.30;;;;;;4027999;29;20027;-49
2023/11/10 10:02:37;;;;;;;;;;;16.00;75.50;;;;;;4040525;29;19939;-49
2023/11/10 10:05:17;;;;;;;;;;;16.00;75.80;;;;;;4029704;29;19944;-50
2023/11/10 10:07:58;;;;;;;;;;;15.90;76.10;;;;;;4015087;29;20063;-51
2023/11/10 10:10:40;;;;;;;;;;;16.00;76.40;;;;;;4027466;29;19943;-51
2023/11/10 10:13:21;;;;;;;;;;;15.90;76.80;;;;;;4036943;29;20302;-51
2023/11/10 10:16:07;;;;;;;;;;;15.90;76.90;;;;;;4041548;29;20670;-50
2023/11/10 10:18:48;;;;;;;;;;;15.80;77.30;;;;;;4026901;29;19943;-50
2023/11/10 10:21:29;;;;;;;;;;;15.80;77.20;;;;;;4026779;29;19935;-47
2023/11/10 10:24:10;;;;;;;;;;;15.80;78.20;;;;;;4025528;29;19934;-45
2023/11/10 10:26:51;;;;;;;;;;;15.90;78.30;;;;;;4026061;29;20087;-45
2023/11/10 10:29:33;;;;;;;;;;;15.90;77.70;;;;;;4021065;29;20398;-46
2023/11/10 10:32:15;;;;;;;;;;;15.90;77.90;;;;;;4028459;29;19938;-46
2023/11/10 10:34:56;;;;;;;;;;;16.00;77.30;;;;;;4029126;29;20079;-52
2023/11/10 10:37:39;;;;;;;;;;;16.00;77.00;;;;;;4017569;29;20064;-51
2023/11/10 10:40:20;;;;;;;;;;;15.90;77.50;;;;;;4030237;29;20411;-52
2023/11/10 10:43:02;;;;;;;;;;;15.90;77.20;;;;;;4030353;29;19935;-56
2023/11/10 10:45:43;;;;;;;;;;;15.90;77.80;;;;;;4029208;29;20450;-49
2023/11/10 10:48:26;;;;;;;;;;;15.90;78.00;;;;;;4016848;29;19938;-46
2023/11/10 10:51:07;;;;;;;;;;;15.80;78.20;;;;;;4028806;29;19974;-45
2023/11/10 10:53:49;;;;;;;;;;;15.80;78.80;;;;;;4029632;29;20108;-46
2023/11/10 10:56:30;;;;;;;;;;;15.70;79.10;;;;;;4028878;29;20002;-45
2023/11/10 10:59:17;;;;;;;;;;;15.70;79.50;;;;;;4029372;29;19935;-46
2023/11/10 11:01:58;;;;;;;;;;;15.70;79.70;;;;;;4040079;29;19935;-45
2023/11/10 11:04:52;;;;;;;;;;;15.70;79.80;;;;;;4044648;29;20303;-46
2023/11/10 11:07:51;;;;;;;;;;;15.70;79.90;;;;;;4043872;29;20079;-47
2023/11/10 11:10:41;;;;;;;;;;;15.70;80.10;;;;;;4042128;29;20050;-48
2023/11/10 11:13:47;;;;;;;;;;;15.70;80.50;;;;;;4044696;29;19939;-49
2023/11/10 11:16:34;;;;;;;;;;;15.60;80.60;;;;;;4036974;29;19955;-45
2023/11/10 11:19:22;;;;;;;;;;;15.60;80.60;;;;;;4017423;29;20015;-45
2023/11/10 11:22:07;;;;;;;;;;;15.50;81.00;;;;;;4028575;29;20031;-45
2023/11/10 11:24:48;;;;;;;;;;;15.50;81.40;;;;;;4017511;29;20067;-45
2023/11/10 11:27:33;;;;;;;;;;;15.50;81.50;;;;;;4017158;29;19939;-43
2023/11/10 11:30:15;;;;;;;;;;;15.50;81.50;;;;;;4037930;29;20074;-46
2023/11/10 11:32:58;;;;;;;;;;;15.40;82.00;;;;;;4028060;29;20500;-47
2023/11/10 11:35:42;;;;;;;;;;;15.40;82.00;;;;;;4041718;29;19934;-46
2023/11/10 11:38:28;;;;;;;;;;;15.30;82.40;;;;;;4044216;29;19938;-45
2023/11/10 11:41:09;;;;;;;;;;;15.30;82.40;;;;;;4043300;29;19938;-50
2023/11/10 11:43:50;;;;;;;;;;;15.30;82.70;;;;;;4027637;29;19974;-46
2023/11/10 11:46:32;;;;;;;;;;;15.30;83.10;;;;;;4027907;29;19935;-45
2023/11/10 11:49:14;;;;;;;;;;;15.30;83.10;;;;;;4028662;29;19939;-44
2023/11/10 11:51:56;;;;;;;;;;;15.20;83.40;;;;;;4016559;29;19954;-47
2023/11/10 11:54:39;;;;;;;;;;;15.20;83.10;;;;;;4028091;29;19952;-47
2023/11/10 11:57:20;;;;;;;;;;;15.20;83.00;;;;;;4028564;29;19938;-49
2023/11/10 12:00:02;;;;;;;;;;;15.20;83.80;;;;;;4029931;29;19999;-50
2023/11/10 12:02:44;;;;;;;;;;;15.10;83.70;;;;;;4031799;29;19935;-52
2023/11/10 12:05:25;;;;;;;;;;;15.10;84.90;;;;;;4029007;29;19960;-53
2023/11/10 12:08:06;;;;;;;;;;;15.10;83.90;;;;;;4029260;29;20391;-49
2023/11/10 12:10:48;;;;;;;;;;;15.10;84.00;;;;;;4016486;29;19939;-54
2023/11/10 12:13:30;;;;;;;;;;;15.00;84.20;;;;;;4027198;29;20331;-47
2023/11/10 12:16:11;;;;;;;;;;;15.00;83.80;;;;;;4027817;29;20832;-50
2023/11/10 12:19:00;;;;;;;;;;;15.00;84.30;;;;;;4028466;29;19951;-46
2023/11/10 12:21:42;;;;;;;;;;;15.00;84.40;;;;;;4028235;29;19935;-45
2023/11/10 12:24:24;;;;;;;;;;;14.90;84.40;;;;;;4028401;29;19955;-45
2023/11/10 12:27:09;;;;;;;;;;;14.90;84.90;;;;;;4029780;29;20399;-47
2023/11/10 12:29:50;;;;;;;;;;;14.90;85.30;;;;;;4042912;29;19934;-45
2023/11/10 12:32:30;;;;;;;;;;;14.90;85.10;;;;;;4027908;29;19958;-47
2023/11/10 12:35:12;;;;;;;;;;;14.90;85.20;;;;;;4027926;29;19935;-45
2023/11/10 12:37:53;;;;;;;;;;;14.90;85.70;;;;;;4027081;29;19971;-47
2023/11/10 12:40:36;;;;;;;;;;;14.90;86.10;;;;;;4017066;29;19935;-49
2023/11/10 12:43:18;;;;;;;;;;;14.90;84.90;;;;;;4028020;29;19939;-43
2023/11/10 12:46:08;;;;;;;;;;;14.80;84.30;;;;;;4041659;29;19982;-47
2023/11/10 12:48:51;;;;;;;;;;;14.80;84.80;;;;;;4043008;29;19934;-50
2023/11/10 12:51:32;;;;;;;;;;;14.80;86.20;;;;;;4028574;29;19939;-46
2023/11/10 12:54:14;;;;;;;;;;;14.80;87.20;;;;;;4014789;29;20067;-46
2023/11/10 12:56:56;;;;;;;;;;;14.80;88.00;;;;;;4032995;29;20335;-50
2023/11/10 12:59:41;;;;;;;;;;;14.90;89.80;;;;;;4041448;29;19986;-46
2023/11/10 13:02:23;;;;;;;;;;;15.00;89.30;;;;;;4029897;29;19935;-46
2023/11/10 13:05:06;;;;;;;;;;;15.10;89.30;;;;;;4042244;29;20405;-53
2023/11/10 13:07:47;;;;;;;;;;;15.10;89.40;;;;;;4038090;29;19954;-50
2023/11/10 13:10:28;;;;;;;;;;;15.20;89.40;;;;;;4024607;29;19978;-47
2023/11/10 13:13:09;;;;;;;;;;;15.30;89.60;;;;;;4026201;29;19983;-46
2023/11/10 13:15:54;;;;;;;;;;;15.40;89.50;;;;;;4024777;29;20010;-49
2023/11/10 13:18:35;;;;;;;;;;;15.40;89.50;;;;;;4015140;29;19939;-46
2023/11/10 13:21:19;;;;;;;;;;;15.50;88.80;;;;;;4026643;29;19948;-43
2023/11/10 13:24:00;;;;;;;;;;;15.60;89.00;;;;;;4026895;29;19935;-46
2023/11/10 13:26:41;;;;;;;;;;;15.60;89.60;;;;;;4027356;29;19935;-46
2023/11/10 13:29:22;;;;;;;;;;;15.70;89.60;;;;;;4041440;29;19935;-46
2023/11/10 13:32:05;;;;;;;;;;;15.80;89.30;;;;;;4041611;29;19949;-44
2023/11/10 13:34:47;;;;;;;;;;;15.90;88.90;;;;;;4032010;29;19955;-44
2023/11/10 13:37:28;;;;;;;;;;;16.00;88.50;;;;;;4025896;29;19986;-44
2023/11/10 13:40:12;;;;;;;;;;;16.00;87.80;;;;;;4027037;29;19939;-44
2023/11/10 13:42:54;;;;;;;;;;;16.00;87.30;;;;;;4037596;29;19935;-44
2023/11/10 13:45:34;;;;;;;;;;;16.00;87.00;;;;;;4041850;29;19982;-45
2023/11/10 13:48:16;;;;;;;;;;;16.00;87.00;;;;;;4042498;29;19934;-46
2023/11/10 13:50:57;;;;;;;;;;;15.90;86.80;;;;;;4032481;29;19983;-45
2023/11/10 13:53:38;;;;;;;;;;;15.90;86.90;;;;;;4040738;29;19935;-47
2023/11/10 13:56:19;;;;;;;;;;;15.90;86.70;;;;;;4027006;29;19939;-46
2023/11/10 13:59:00;;;;;;;;;;;15.90;86.30;;;;;;4025918;29;19981;-46
2023/11/10 14:01:42;;;;;;;;;;;16.00;86.20;;;;;;4026045;29;20307;-44
2023/11/10 14:04:24;;;;;;;;;;;16.00;85.90;;;;;;4026258;29;20291;-47
2023/11/10 14:07:07;;;;;;;;;;;16.00;86.50;;;;;;4038970;29;20388;-46
2023/11/10 14:09:51;;;;;;;;;;;16.00;85.50;;;;;;4036060;29;20023;-45
2023/11/10 14:12:31;;;;;;;;;;;15.90;85.40;;;;;;4026829;29;19995;-45
2023/11/10 14:15:14;;;;;;;;;;;15.90;85.30;;;;;;4030203;29;20009;-47
2023/11/10 14:17:55;;;;;;;;;;;15.90;85.40;;;;;;4029399;29;19939;-49
2023/11/10 14:20:37;;;;;;;;;;;15.90;86.20;;;;;;4028799;29;20038;-47
2023/11/10 14:23:18;;;;;;;;;;;15.90;85.30;;;;;;4029547;29;19939;-45
2023/11/10 14:26:00;;;;;;;;;;;15.90;85.10;;;;;;4029982;29;19935;-44
2023/11/10 14:28:41;;;;;;;;;;;15.90;85.10;;;;;;4029363;29;19956;-44
2023/11/10 14:31:21;;;;;;;;;;;15.90;85.00;;;;;;4019868;29;19989;-46
2023/11/10 14:34:03;;;;;;;;;;;15.90;84.80;;;;;;4028853;29;20488;-48
2023/11/10 14:36:46;;;;;;;;;;;15.90;85.80;;;;;;4038710;29;19970;-46
2023/11/10 14:39:27;;;;;;;;;;;15.90;85.00;;;;;;4044920;29;20295;-50
2023/11/10 14:42:10;;;;;;;;;;;15.90;84.90;;;;;;4033165;29;19935;-48
2023/11/10 14:44:53;;;;;;;;;;;15.90;84.60;;;;;;4039005;29;20444;-51
2023/11/10 14:47:34;;;;;;;;;;;16.00;84.60;;;;;;4060081;29;19938;-47
2023/11/10 14:50:24;;;;;;;;;;;16.00;84.50;;;;;;4019820;29;20361;-49
2023/11/10 14:53:16;;;;;;;;;;;15.90;84.30;;;;;;4018475;29;19938;-47
2023/11/10 14:56:00;;;;;;;;;;;15.90;84.20;;;;;;4028594;29;19934;-45
2023/11/10 14:58:41;;;;;;;;;;;15.90;84.30;;;;;;4017268;29;19937;-48
2023/11/10 15:01:22;;;;;;;;;;;15.90;84.30;;;;;;4029487;29;20394;-44
2023/11/10 15:04:04;;;;;;;;;;;15.80;84.40;;;;;;4027954;29;20646;-47
2023/11/10 15:06:45;;;;;;;;;;;15.80;84.60;;;;;;4038700;29;19938;-48
2023/11/10 15:09:28;;;;;;;;;;;15.80;84.70;;;;;;3982425;29;19938;-53
2023/11/10 15:12:09;;;;;;;;;;;15.80;84.70;;;;;;4041268;29;20389;-46
2023/11/10 15:14:50;;;;;;;;;;;15.80;84.70;;;;;;4043172;29;20598;-49
2023/11/10 15:17:32;;;;;;;;;;;15.80;84.60;;;;;;4043287;29;20718;-49
2023/11/10 15:20:13;;;;;;;;;;;15.80;84.70;;;;;;4028919;29;20393;-46
2023/11/10 15:22:54;;;;;;;;;;;15.80;84.60;;;;;;4028722;29;19954;-49
2023/11/10 15:25:36;;;;;;;;;;;15.80;84.70;;;;;;4017150;29;19935;-46
2023/11/10 15:28:18;;;;;;;;;;;15.70;84.60;;;;;;4029124;29;20031;-50
2023/11/10 15:30:59;;;;;;;;;;;15.70;84.90;;;;;;4028402;29;20068;-50
2023/11/10 15:33:39;;;;;;;;;;;15.70;84.90;;;;;;4028708;29;20288;-47
2023/11/10 15:36:20;;;;;;;;;;;15.70;85.80;;;;;;4034704;29;19955;-49
2023/11/10 15:39:01;;;;;;;;;;;15.70;84.80;;;;;;4035677;29;19955;-51
2023/11/10 15:41:46;;;;;;;;;;;15.70;84.70;;;;;;4026439;29;19935;-51